createdAt,value
2023-05-21T00:01:48.339Z,1.00
2023-05-21T00:04:15.746Z,1.00
2023-05-21T00:06:43.143Z,1.00
2023-05-21T00:09:12.779Z,1.00
2023-05-21T00:11:40.178Z,1.00
2023-05-21T00:14:07.558Z,1.00
2023-05-21T00:16:35.037Z,1.00
2023-05-21T00:19:02.558Z,1.00
2023-05-21T00:21:31.641Z,1.00
2023-05-21T00:23:59.064Z,1.00
2023-05-21T00:26:26.546Z,1.00
2023-05-21T00:28:53.852Z,1.00
2023-05-21T00:31:23.690Z,1.00
2023-05-21T00:33:53.326Z,1.00
2023-05-21T00:36:23.703Z,1.00
2023-05-21T00:38:51.889Z,1.00
2023-05-21T00:41:19.433Z,1.00
2023-05-21T00:43:46.789Z,1.00
2023-05-21T00:46:17.217Z,1.00
2023-05-21T00:48:46.048Z,1.00
2023-05-21T00:51:14.790Z,1.00
2023-05-21T00:53:43.012Z,2.90
2023-05-21T00:56:10.741Z,5.20
2023-05-21T00:58:39.428Z,10.20
2023-05-21T01:01:07.120Z,5.90
2023-05-21T01:03:38.522Z,10.20
2023-05-21T01:06:06.830Z,18.30
2023-05-21T01:08:36.263Z,20.10
2023-05-21T01:11:04.985Z,23.20
2023-05-21T01:13:34.584Z,28.60
2023-05-21T01:16:02.957Z,35.30
2023-05-21T01:18:35.134Z,35.30
2023-05-21T01:21:03.085Z,36.80
2023-05-21T01:23:30.558Z,41.40
2023-05-21T01:25:57.919Z,49.80
2023-05-21T01:28:25.314Z,48.50
2023-05-21T01:30:52.850Z,48.60
2023-05-21T01:33:38.852Z,53.10
2023-05-21T01:36:14.037Z,57.20
2023-05-21T01:39:00.646Z,59.90
2023-05-21T01:41:30.551Z,64.90
2023-05-21T01:43:58.306Z,70.70
2023-05-21T01:46:28.919Z,82.20
2023-05-21T01:48:57.293Z,87.90
2023-05-21T01:51:26.022Z,91.80
2023-05-21T01:53:53.385Z,93.20
2023-05-21T01:56:23.099Z,92.80
2023-05-21T01:58:50.444Z,95.70
2023-05-21T02:01:17.859Z,97.50
2023-05-21T02:03:45.334Z,97.90
2023-05-21T02:06:12.827Z,99.90
2023-05-21T02:08:40.334Z,99.90
2023-05-21T02:11:07.743Z,99.90
2023-05-21T02:13:40.662Z,99.90
2023-05-21T02:16:12.056Z,99.90
2023-05-21T02:18:40.125Z,99.90
2023-05-21T02:21:07.712Z,99.90
2023-05-21T02:23:35.030Z,99.90
2023-05-21T02:26:02.871Z,99.90
2023-05-21T02:28:30.562Z,99.90
2023-05-21T02:30:58.005Z,99.90
2023-05-21T02:33:26.058Z,99.90
2023-05-21T02:35:53.596Z,99.90
2023-05-21T02:38:23.018Z,99.90
2023-05-21T02:40:53.481Z,99.90
2023-05-21T02:43:21.034Z,99.90
2023-05-21T02:45:48.907Z,99.90
2023-05-21T02:48:16.261Z,99.90
2023-05-21T02:50:43.684Z,99.90
2023-05-21T02:53:11.049Z,99.90
2023-05-21T02:55:38.469Z,99.90
2023-05-21T02:58:06.143Z,99.90
2023-05-21T03:00:33.525Z,99.90
2023-05-21T03:03:01.251Z,99.90
2023-05-21T03:05:28.761Z,99.90
2023-05-21T03:07:56.490Z,99.90
2023-05-21T03:10:23.840Z,99.90
2023-05-21T03:12:51.245Z,99.90
2023-05-21T03:15:23.782Z,99.90
2023-05-21T03:17:54.182Z,99.90
2023-05-21T03:20:21.689Z,99.90
2023-05-21T03:22:49.829Z,99.90
2023-05-21T03:25:17.276Z,99.90
2023-05-21T03:27:44.574Z,99.90
2023-05-21T03:30:12.586Z,99.90
2023-05-21T03:32:41.253Z,99.90
2023-05-21T03:35:08.939Z,99.90
2023-05-21T03:37:36.243Z,99.90
2023-05-21T03:40:04.565Z,99.90
2023-05-21T03:42:31.918Z,99.90
2023-05-21T03:44:59.273Z,99.90
2023-05-21T03:47:26.598Z,99.90
2023-05-21T03:49:54.094Z,99.90
2023-05-21T03:52:21.514Z,99.90
2023-05-21T03:54:48.839Z,99.90
2023-05-21T03:57:16.265Z,99.90
2023-05-21T03:59:43.619Z,99.90
2023-05-21T04:02:11.192Z,99.90
2023-05-21T04:04:38.641Z,99.90
2023-05-21T04:07:06.023Z,99.90
2023-05-21T04:09:35.360Z,99.90
2023-05-21T04:12:04.185Z,99.90
2023-05-21T04:14:31.561Z,99.90
2023-05-21T04:16:59.098Z,99.90
2023-05-21T04:19:26.510Z,99.90
2023-05-21T04:21:53.837Z,99.90
2023-05-21T04:24:22.416Z,99.90
2023-05-21T04:26:50.024Z,99.90
2023-05-21T04:29:21.359Z,99.90
2023-05-21T04:31:49.730Z,99.90
2023-05-21T04:34:17.974Z,99.90
2023-05-21T04:36:46.252Z,99.90
2023-05-21T04:39:14.628Z,99.90
2023-05-21T04:41:42.064Z,99.90
2023-05-21T04:44:10.131Z,99.90
2023-05-21T04:46:39.679Z,99.90
2023-05-21T04:49:10.197Z,99.90
2023-05-21T04:51:37.895Z,99.90
2023-05-21T04:54:05.403Z,99.90
2023-05-21T04:56:32.771Z,99.90
2023-05-21T04:59:00.148Z,99.90
2023-05-21T05:01:29.300Z,99.90
2023-05-21T05:03:56.805Z,99.90
2023-05-21T05:06:28.209Z,99.90
2023-05-21T05:08:55.565Z,99.90
2023-05-21T05:11:22.949Z,99.90
2023-05-21T05:13:50.421Z,99.90
2023-05-21T05:16:18.425Z,99.90
2023-05-21T05:18:45.867Z,99.90
2023-05-21T05:21:13.226Z,99.90
2023-05-21T05:23:40.597Z,99.90
2023-05-21T05:26:09.193Z,99.90
2023-05-21T05:28:36.630Z,99.90
2023-05-21T05:31:04.096Z,99.90
2023-05-21T05:33:31.557Z,99.90
2023-05-21T05:35:58.950Z,99.90
2023-05-21T05:38:26.943Z,99.90
2023-05-21T05:40:54.303Z,99.90
2023-05-21T05:43:21.713Z,99.90
2023-05-21T05:45:49.096Z,99.90
2023-05-21T05:48:16.850Z,99.90
2023-05-21T05:50:44.945Z,99.90
2023-05-21T05:53:13.344Z,99.90
2023-05-21T05:55:41.004Z,99.90
2023-05-21T05:58:08.368Z,99.90
2023-05-21T06:00:35.758Z,99.90
2023-05-21T06:03:03.657Z,99.90
2023-05-21T06:05:31.212Z,93.70
2023-05-21T06:07:58.695Z,96.30
2023-05-21T06:10:26.158Z,91.60
2023-05-21T06:12:53.505Z,81.10
2023-05-21T06:15:20.891Z,77.40
2023-05-21T06:17:48.376Z,90.60
2023-05-21T06:20:16.476Z,70.00
2023-05-21T06:22:43.834Z,83.30
2023-05-21T06:25:11.203Z,68.40
2023-05-21T06:27:38.902Z,62.30
2023-05-21T06:30:07.312Z,36.60
2023-05-21T06:32:34.790Z,36.00
2023-05-21T06:35:02.518Z,42.60
2023-05-21T06:37:29.913Z,46.20
2023-05-21T06:39:57.221Z,38.40
2023-05-21T06:42:24.596Z,30.10
2023-05-21T06:44:51.968Z,26.70
2023-05-21T06:47:19.346Z,22.10
2023-05-21T06:49:46.762Z,1.80
2023-05-21T06:52:14.150Z,1.00
2023-05-21T06:54:42.399Z,1.00
2023-05-21T06:57:09.786Z,8.90
2023-05-21T06:59:37.158Z,5.10
2023-05-21T07:02:04.869Z,1.00
2023-05-21T07:04:32.370Z,1.00
2023-05-21T07:06:59.727Z,1.00
2023-05-21T07:09:27.068Z,1.00
2023-05-21T07:11:54.419Z,1.00
2023-05-21T07:14:21.846Z,1.00
2023-05-21T07:16:49.344Z,1.00
2023-05-21T07:19:16.720Z,1.00
2023-05-21T07:21:44.091Z,1.00
2023-05-21T07:24:11.448Z,1.00
2023-05-21T07:26:38.895Z,1.00
2023-05-21T07:29:09.396Z,1.00
2023-05-21T07:31:36.937Z,1.00
2023-05-21T07:34:04.262Z,1.00
2023-05-21T07:36:33.476Z,1.00
2023-05-21T07:39:00.941Z,1.00
2023-05-21T07:41:28.377Z,1.00
2023-05-21T07:43:55.801Z,1.00
2023-05-21T07:46:23.214Z,1.00
2023-05-21T07:48:53.610Z,1.00
2023-05-21T07:51:21.047Z,1.00
2023-05-21T07:53:48.350Z,1.00
2023-05-21T07:56:15.725Z,1.00
2023-05-21T07:58:45.797Z,1.00
2023-05-21T08:01:13.400Z,1.00
2023-05-21T08:03:41.112Z,1.00
2023-05-21T08:06:08.576Z,1.00
2023-05-21T08:08:35.952Z,1.00
2023-05-21T08:11:03.294Z,1.00
2023-05-21T08:13:30.768Z,99.90
2023-05-21T08:15:58.795Z,99.90
2023-05-21T08:18:26.085Z,99.90
2023-05-21T08:20:53.489Z,99.90
2023-05-21T08:23:20.730Z,99.90
2023-05-21T08:25:48.069Z,99.90
2023-05-21T08:28:15.444Z,99.90
2023-05-21T08:30:42.780Z,99.90
2023-05-21T08:33:10.183Z,99.90
2023-05-21T08:35:37.865Z,1.00
2023-05-21T08:38:05.524Z,1.00
2023-05-21T08:40:33.349Z,1.00
2023-05-21T08:43:01.601Z,1.00
2023-05-21T08:45:38.803Z,99.90
2023-05-21T08:48:08.668Z,4.00
2023-05-21T08:50:36.064Z,99.90
2023-05-21T08:53:07.510Z,1.00
2023-05-21T08:55:45.797Z,99.90
2023-05-21T08:58:14.896Z,99.90
2023-05-21T09:00:42.217Z,1.00
2023-05-21T09:03:11.575Z,1.00
2023-05-21T09:05:43.158Z,1.00
2023-05-21T09:08:15.915Z,99.90
2023-05-21T09:10:51.865Z,1.00
2023-05-21T09:13:20.217Z,1.00
2023-05-21T09:15:48.757Z,1.00
2023-05-21T09:18:57.754Z,1.00
2023-05-21T09:21:29.996Z,1.00
2023-05-21T09:23:59.101Z,1.00
2023-05-21T09:26:26.921Z,99.90
2023-05-21T09:28:59.791Z,1.00
2023-05-21T09:31:27.603Z,95.80
2023-05-21T09:33:57.928Z,99.90
2023-05-21T09:36:25.541Z,99.90
2023-05-21T09:38:52.923Z,1.00
2023-05-21T09:41:22.371Z,99.90
2023-05-21T09:43:50.094Z,20.80
2023-05-21T09:46:21.682Z,99.90
2023-05-21T09:48:49.076Z,1.00
2023-05-21T09:51:18.450Z,1.00
2023-05-21T09:53:50.003Z,1.00
2023-05-21T09:56:30.703Z,1.00
2023-05-21T09:59:01.291Z,99.90
2023-05-21T10:01:31.454Z,99.90
2023-05-21T10:04:00.580Z,99.90
2023-05-21T10:06:29.592Z,99.90
2023-05-21T10:09:11.162Z,1.00
2023-05-21T10:11:43.443Z,99.90
2023-05-21T10:14:25.394Z,1.00
2023-05-21T10:16:54.576Z,1.00
2023-05-21T10:19:24.967Z,99.90
2023-05-21T10:21:54.114Z,1.00
2023-05-21T10:24:22.845Z,99.90
2023-05-21T10:26:50.840Z,1.00
2023-05-21T10:29:19.986Z,1.00
2023-05-21T10:31:50.565Z,1.00
2023-05-21T10:34:19.152Z,1.00
2023-05-21T10:36:49.706Z,80.40
2023-05-21T10:39:21.350Z,1.00
2023-05-21T10:41:59.232Z,1.00
2023-05-21T10:44:36.948Z,1.00
2023-05-21T10:47:10.048Z,99.90
2023-05-21T10:50:01.459Z,99.90
2023-05-21T10:52:50.035Z,99.90
2023-05-21T10:55:35.248Z,99.90
2023-05-21T10:58:22.200Z,1.00
2023-05-21T11:00:50.594Z,1.00
2023-05-21T11:03:18.356Z,1.00
2023-05-21T11:05:54.810Z,1.00
2023-05-21T11:08:23.588Z,1.00
2023-05-21T11:10:58.899Z,1.00
2023-05-21T11:13:27.653Z,1.00
2023-05-21T11:15:58.225Z,1.00
2023-05-21T11:18:38.078Z,1.00
2023-05-21T11:21:21.008Z,1.00
2023-05-21T11:23:51.551Z,1.00
2023-05-21T11:26:23.523Z,1.00
2023-05-21T11:29:11.401Z,1.00
2023-05-21T11:31:39.289Z,1.00
2023-05-21T11:34:29.188Z,1.00
2023-05-21T11:37:23.419Z,99.90
2023-05-21T11:39:51.914Z,88.50
2023-05-21T11:42:29.540Z,1.00
2023-05-21T11:45:00.938Z,99.90
2023-05-21T11:47:29.815Z,99.90
2023-05-21T11:50:01.413Z,1.00
2023-05-21T11:52:30.335Z,1.00
2023-05-21T11:55:02.416Z,1.00
2023-05-21T11:57:33.058Z,1.00
2023-05-21T12:00:04.035Z,99.90
2023-05-21T12:02:32.610Z,99.90
2023-05-21T12:05:03.901Z,52.30
2023-05-21T12:07:31.422Z,13.50
2023-05-21T12:09:59.061Z,1.00
2023-05-21T12:12:35.318Z,1.00
2023-05-21T12:15:10.369Z,1.00
2023-05-21T12:17:38.621Z,1.00
2023-05-21T12:20:08.461Z,1.00
2023-05-21T12:22:39.380Z,1.00
2023-05-21T12:25:07.491Z,1.00
2023-05-21T12:27:37.109Z,1.00
2023-05-21T12:30:05.079Z,1.00
2023-05-21T12:32:32.682Z,1.00
2023-05-21T12:35:00.222Z,1.00
2023-05-21T12:37:32.530Z,1.00
2023-05-21T12:40:01.383Z,1.00
2023-05-21T12:42:30.814Z,1.00
2023-05-21T12:44:58.617Z,1.00
2023-05-21T12:47:27.302Z,1.00
2023-05-21T12:50:00.261Z,1.00
2023-05-21T12:52:28.163Z,1.00
2023-05-21T12:54:56.827Z,1.00
2023-05-21T12:57:28.039Z,1.00
2023-05-21T12:59:59.450Z,1.00
2023-05-21T13:02:27.839Z,1.00
2023-05-21T13:05:11.209Z,99.90
2023-05-21T13:07:39.636Z,99.90
2023-05-21T13:10:07.834Z,99.90
2023-05-21T13:12:35.765Z,99.90
2023-05-21T13:15:06.994Z,99.90
2023-05-21T13:17:34.461Z,99.90
2023-05-21T13:20:09.268Z,99.90
2023-05-21T13:22:41.170Z,99.90
2023-05-21T13:25:10.564Z,99.90
2023-05-21T13:27:41.566Z,99.90
2023-05-21T13:30:11.405Z,99.90
2023-05-21T13:32:39.992Z,99.90
2023-05-21T13:35:08.083Z,99.90
2023-05-21T13:37:41.730Z,99.90
2023-05-21T13:40:11.260Z,99.90
2023-05-21T13:42:38.919Z,99.90
2023-05-21T13:45:08.296Z,99.90
2023-05-21T13:47:39.178Z,99.90
2023-05-21T13:50:10.447Z,99.90
2023-05-21T13:52:38.519Z,99.90
2023-05-21T13:55:06.670Z,99.90
2023-05-21T13:57:34.266Z,99.90
2023-05-21T14:00:01.976Z,99.90
2023-05-21T14:02:29.607Z,99.90
2023-05-21T14:04:57.813Z,99.90
2023-05-21T14:07:25.183Z,99.90
2023-05-21T14:09:55.008Z,99.90
2023-05-21T14:12:23.409Z,99.90
2023-05-21T14:14:51.545Z,99.90
2023-05-21T14:17:18.993Z,99.90
2023-05-21T14:19:49.467Z,99.90
2023-05-21T14:22:16.905Z,99.90
2023-05-21T14:24:44.296Z,99.90
2023-05-21T14:27:13.845Z,99.90
2023-05-21T14:29:42.820Z,99.90
2023-05-21T14:32:10.260Z,99.90
2023-05-21T14:34:39.064Z,99.90
2023-05-21T14:37:06.550Z,99.90
2023-05-21T14:39:34.052Z,99.90
2023-05-21T14:42:04.446Z,99.90
2023-05-21T14:44:32.611Z,99.90
2023-05-21T14:47:03.060Z,99.90
2023-05-21T14:49:30.524Z,99.90
2023-05-21T14:51:57.855Z,99.90
2023-05-21T14:54:25.410Z,99.90
2023-05-21T14:56:53.546Z,99.90
2023-05-21T14:59:20.993Z,99.90
2023-05-21T15:01:48.569Z,99.90
2023-05-21T15:04:16.050Z,99.90
2023-05-21T15:06:43.391Z,99.90
2023-05-21T15:09:10.962Z,99.90
2023-05-21T15:11:39.802Z,99.90
2023-05-21T15:14:07.229Z,99.90
2023-05-21T15:16:34.567Z,99.90
2023-05-21T15:19:02.046Z,99.90
2023-05-21T15:21:29.464Z,99.90
2023-05-21T15:23:56.974Z,99.90
2023-05-21T15:26:26.290Z,99.90
2023-05-21T15:28:53.993Z,99.90
2023-05-21T15:31:21.363Z,99.90
2023-05-21T15:33:49.035Z,99.90
2023-05-21T15:36:16.406Z,99.90
2023-05-21T15:38:44.225Z,99.90
2023-05-21T15:41:11.587Z,99.90
2023-05-21T15:43:39.044Z,99.90
2023-05-21T15:46:06.464Z,99.90
2023-05-21T15:48:33.863Z,99.90
2023-05-21T15:51:01.202Z,99.90
2023-05-21T15:53:28.670Z,99.90
2023-05-21T15:55:56.668Z,99.90
2023-05-21T15:58:24.103Z,99.90
2023-05-21T16:00:51.596Z,99.90
2023-05-21T16:03:19.071Z,99.90
2023-05-21T16:05:46.702Z,99.90
2023-05-21T16:08:14.165Z,99.90
2023-05-21T16:10:41.638Z,99.90
2023-05-21T16:13:09.257Z,99.90
2023-05-21T16:15:36.951Z,99.90
2023-05-21T16:18:27.763Z,99.90
2023-05-21T16:20:56.356Z,99.90
2023-05-21T16:23:23.998Z,99.90
2023-05-21T16:25:51.494Z,99.90
2023-05-21T16:28:18.799Z,99.90
2023-05-21T16:30:46.307Z,99.90
2023-05-21T16:33:13.905Z,99.90
2023-05-21T16:35:41.337Z,99.90
2023-05-21T16:38:08.713Z,99.90
2023-05-21T16:40:40.354Z,99.90
2023-05-21T16:43:08.614Z,99.90
2023-05-21T16:45:43.254Z,99.90
2023-05-21T16:48:12.844Z,99.90
2023-05-21T16:50:40.646Z,99.90
2023-05-21T16:53:09.761Z,99.90
2023-05-21T16:55:38.400Z,99.90
2023-05-21T16:58:06.491Z,99.90
2023-05-21T17:00:34.526Z,99.90
2023-05-21T17:03:02.257Z,99.90
2023-05-21T17:05:29.713Z,99.90
2023-05-21T17:07:57.158Z,99.90
2023-05-21T17:10:27.626Z,99.90
2023-05-21T17:12:55.037Z,99.90
2023-05-21T17:15:22.943Z,99.90
2023-05-21T17:18:09.990Z,99.90
2023-05-21T17:20:38.380Z,99.90
2023-05-21T17:23:21.607Z,99.90
2023-05-21T17:25:48.995Z,99.90
2023-05-21T17:28:16.457Z,99.90
2023-05-21T17:30:43.824Z,99.90
2023-05-21T17:33:12.165Z,99.90
2023-05-21T17:35:39.793Z,99.90
2023-05-21T17:38:07.477Z,99.90
2023-05-21T17:40:35.005Z,99.90
2023-05-21T17:43:03.089Z,99.90
2023-05-21T17:45:30.578Z,99.90
2023-05-21T17:47:59.716Z,99.90
2023-05-21T17:50:28.122Z,99.90
2023-05-21T17:52:55.640Z,99.90
2023-05-21T17:55:28.641Z,99.90
2023-05-21T17:57:56.015Z,99.90
2023-05-21T18:00:23.351Z,99.90
2023-05-21T18:02:50.758Z,99.90
2023-05-21T18:05:18.178Z,99.90
2023-05-21T18:07:45.736Z,99.90
2023-05-21T18:10:16.465Z,99.90
2023-05-21T18:12:46.225Z,99.90
2023-05-21T18:15:14.981Z,99.90
2023-05-21T18:17:42.452Z,99.90
2023-05-21T18:20:10.585Z,99.90
2023-05-21T18:22:38.014Z,99.90
2023-05-21T18:25:06.020Z,99.90
2023-05-21T18:27:33.396Z,99.90
2023-05-21T18:30:03.340Z,99.90
2023-05-21T18:32:31.007Z,99.90
2023-05-21T18:34:58.506Z,99.90
2023-05-21T18:37:27.280Z,99.90
2023-05-21T18:39:54.706Z,99.90
2023-05-21T18:45:10.118Z,99.90
2023-05-21T18:47:39.119Z,99.90
2023-05-21T18:50:09.263Z,1.00
2023-05-21T18:52:36.594Z,1.00
2023-05-21T18:55:04.236Z,1.00
2023-05-21T18:57:33.586Z,1.00
2023-05-21T19:00:00.937Z,1.00
2023-05-21T19:02:29.934Z,1.00
2023-05-21T19:04:57.361Z,1.00
2023-05-21T19:07:24.755Z,1.00
2023-05-21T19:09:52.765Z,99.90
2023-05-21T19:12:20.082Z,99.90
2023-05-21T19:14:47.619Z,1.00
2023-05-21T19:17:14.904Z,1.00
2023-05-21T19:19:42.502Z,31.70
2023-05-21T19:22:11.074Z,99.90
2023-05-21T19:24:38.527Z,1.00
2023-05-21T19:27:06.388Z,1.00
2023-05-21T19:29:33.889Z,1.00
2023-05-21T19:32:01.287Z,1.00
2023-05-21T19:34:28.719Z,1.00
2023-05-21T19:36:56.430Z,96.70
2023-05-21T19:39:23.829Z,99.90
2023-05-21T19:41:53.270Z,99.90
2023-05-21T19:44:20.979Z,1.00
2023-05-21T19:46:49.881Z,1.00
2023-05-21T19:49:17.555Z,1.00
2023-05-21T19:51:44.916Z,99.90
2023-05-21T19:54:12.208Z,99.90
2023-05-21T19:56:39.685Z,1.00
2023-05-21T19:59:06.972Z,1.00
2023-05-21T20:01:39.214Z,1.00
2023-05-21T20:04:09.961Z,1.00
2023-05-21T20:06:38.087Z,1.00
2023-05-21T20:09:06.739Z,99.90
2023-05-21T20:11:34.702Z,1.00
2023-05-21T20:14:02.264Z,99.90
2023-05-21T20:16:30.046Z,1.00
2023-05-21T20:18:58.303Z,1.00
2023-05-21T20:21:25.825Z,1.00
2023-05-21T20:23:53.542Z,1.00
2023-05-21T20:26:21.807Z,99.90
2023-05-21T20:28:49.136Z,1.00
2023-05-21T20:31:16.609Z,1.00
2023-05-21T20:33:43.998Z,99.90
2023-05-21T20:36:11.380Z,99.90
2023-05-21T20:38:38.718Z,1.00
2023-05-21T20:41:06.131Z,1.00
2023-05-21T20:43:33.689Z,1.00
2023-05-21T20:46:01.092Z,1.00
2023-05-21T20:48:29.488Z,1.00
2023-05-21T20:51:00.306Z,1.00
2023-05-21T20:53:27.740Z,1.00
2023-05-21T20:55:55.192Z,1.00
2023-05-21T20:58:25.874Z,1.00
2023-05-21T21:00:55.165Z,1.00
2023-05-21T21:03:22.769Z,26.50
2023-05-21T21:05:50.697Z,99.90
2023-05-21T21:08:18.024Z,99.90
2023-05-21T21:10:47.052Z,99.90
2023-05-21T21:13:14.862Z,99.90
2023-05-21T21:15:43.858Z,99.90
2023-05-21T21:18:17.593Z,1.00
2023-05-21T21:20:49.475Z,1.00
2023-05-21T21:23:16.971Z,1.00
2023-05-21T21:25:44.487Z,1.00
2023-05-21T21:28:11.921Z,1.00
2023-05-21T21:30:40.948Z,1.00
2023-05-21T21:33:10.417Z,1.00
2023-05-21T21:35:41.508Z,1.00
2023-05-21T21:38:08.830Z,1.00
2023-05-21T21:40:36.395Z,1.00
2023-05-21T21:43:03.818Z,1.00
2023-05-21T21:45:31.774Z,1.00
2023-05-21T21:47:59.284Z,1.00
2023-05-21T21:50:26.697Z,1.00
2023-05-21T21:52:55.898Z,1.00
2023-05-21T21:55:23.341Z,1.00
2023-05-21T21:57:50.684Z,1.00
2023-05-21T22:00:18.281Z,1.00
2023-05-21T22:02:48.602Z,1.00
2023-05-21T22:05:18.333Z,1.00
2023-05-21T22:07:48.943Z,1.00
2023-05-21T22:10:17.442Z,1.00
2023-05-21T22:12:45.943Z,1.00
2023-05-21T22:15:25.192Z,1.00
2023-05-21T22:17:53.378Z,1.00
2023-05-21T22:20:22.079Z,1.00
2023-05-21T22:22:49.769Z,1.00
2023-05-21T22:25:17.343Z,1.00
2023-05-21T22:27:44.680Z,1.00
2023-05-21T22:30:12.323Z,1.00
2023-05-21T22:32:40.672Z,1.00
2023-05-21T22:35:08.506Z,1.00
2023-05-21T22:37:37.367Z,1.00
2023-05-21T22:40:09.155Z,8.90
2023-05-21T22:42:37.204Z,15.20
2023-05-21T22:45:05.035Z,18.80
2023-05-21T22:47:32.535Z,24.80
2023-05-21T22:50:01.437Z,25.60
2023-05-21T22:52:28.919Z,25.20
2023-05-21T22:54:57.881Z,20.90
2023-05-21T22:57:25.630Z,28.40
2023-05-21T22:59:52.973Z,30.60
2023-05-21T23:02:20.692Z,31.20
2023-05-21T23:04:49.342Z,38.20
2023-05-21T23:07:18.112Z,55.50
2023-05-21T23:09:45.517Z,70.70
2023-05-21T23:12:13.067Z,77.60
2023-05-21T23:14:40.552Z,91.50
2023-05-21T23:17:08.019Z,90.60
2023-05-21T23:19:35.730Z,96.90
2023-05-21T23:22:03.324Z,99.90
2023-05-21T23:24:30.830Z,99.90
2023-05-21T23:27:02.733Z,99.90
2023-05-21T23:29:30.646Z,99.90
2023-05-21T23:31:58.377Z,99.90
2023-05-21T23:34:26.012Z,99.90
2023-05-21T23:36:53.495Z,99.90
2023-05-21T23:39:21.458Z,99.90
2023-05-21T23:41:49.144Z,99.90
2023-05-21T23:44:16.675Z,99.90
2023-05-21T23:46:44.021Z,99.90
2023-05-21T23:49:11.901Z,99.90
2023-05-21T23:51:39.785Z,99.90
2023-05-21T23:54:08.239Z,99.90
2023-05-21T23:56:35.812Z,99.90
2023-05-21T23:59:03.365Z,99.90
